createdAt,value
2017-11-23T00:00:00.178Z,4.1
2017-11-23T00:00:20.391Z,4.2
2017-11-23T00:00:40.612Z,4.2
2017-11-23T00:01:00.839Z,4.1
2017-11-23T00:01:21.075Z,4.1
2017-11-23T00:01:41.286Z,4.1
2017-11-23T00:02:01.514Z,4.1
2017-11-23T00:02:21.718Z,4.1
2017-11-23T00:02:41.917Z,4.2
2017-11-23T00:03:02.130Z,4.1
2017-11-23T00:03:22.358Z,4.1
2017-11-23T00:03:42.579Z,4.2
2017-11-23T00:04:02.792Z,4.1
2017-11-23T00:04:23.010Z,4.2
2017-11-23T00:04:43.220Z,4.2
2017-11-23T00:05:03.425Z,4
2017-11-23T00:05:23.661Z,4
2017-11-23T00:05:43.870Z,4
2017-11-23T00:06:04.084Z,4
2017-11-23T00:06:24.304Z,4
2017-11-23T00:06:44.508Z,4
2017-11-23T00:07:04.735Z,4
2017-11-23T00:07:24.948Z,4
2017-11-23T00:07:45.155Z,4.1
2017-11-23T00:08:05.364Z,4
2017-11-23T00:08:25.571Z,4.1
2017-11-23T00:08:45.791Z,4
2017-11-23T00:09:06.003Z,4.1
2017-11-23T00:09:26.219Z,4
2017-11-23T00:09:46.430Z,4
2017-11-23T00:10:06.644Z,4
2017-11-23T00:10:26.863Z,4
2017-11-23T00:10:47.078Z,4
2017-11-23T00:11:07.292Z,4
2017-11-23T00:11:27.530Z,4.1
2017-11-23T00:11:47.743Z,4.1
2017-11-23T00:12:07.955Z,4
2017-11-23T00:12:28.170Z,4
2017-11-23T00:12:48.383Z,4.1
2017-11-23T00:13:08.592Z,4
2017-11-23T00:13:28.791Z,4.1
2017-11-23T00:13:49.011Z,4.1
2017-11-23T00:14:09.216Z,4
2017-11-23T00:14:29.431Z,4.1
2017-11-23T00:14:49.638Z,4
2017-11-23T00:15:09.854Z,4
2017-11-23T00:15:30.065Z,4.1
2017-11-23T00:15:50.284Z,4
2017-11-23T00:16:10.511Z,4
2017-11-23T00:16:30.752Z,4.1
2017-11-23T00:16:50.969Z,4.1
2017-11-23T00:17:11.179Z,4
2017-11-23T00:17:31.400Z,4.1
2017-11-23T00:17:51.606Z,4
2017-11-23T00:18:11.825Z,4
2017-11-23T00:18:32.038Z,4.1
2017-11-23T00:18:52.268Z,4.1
2017-11-23T00:19:12.478Z,4.1
2017-11-23T00:19:32.709Z,4
2017-11-23T00:19:52.909Z,4
2017-11-23T00:20:13.129Z,4.1
2017-11-23T00:20:33.340Z,4
2017-11-23T00:20:53.556Z,4
2017-11-23T00:21:13.772Z,4
2017-11-23T00:21:33.987Z,4
2017-11-23T00:21:54.207Z,3.9
2017-11-23T00:22:14.415Z,4
2017-11-23T00:22:34.628Z,4
2017-11-23T00:22:54.855Z,3.9
2017-11-23T00:23:15.084Z,4.1
2017-11-23T00:23:35.323Z,4
2017-11-23T00:23:55.541Z,3.9
2017-11-23T00:24:15.748Z,3.9
2017-11-23T00:24:35.974Z,3.9
2017-11-23T00:24:56.197Z,3.9
2017-11-23T00:25:16.402Z,3.9
2017-11-23T00:25:36.615Z,3.9
2017-11-23T00:25:56.843Z,3.8
2017-11-23T00:26:17.065Z,3.9
2017-11-23T00:26:37.273Z,3.9
2017-11-23T00:26:57.487Z,3.9
2017-11-23T00:27:17.695Z,3.8
2017-11-23T00:27:37.909Z,3.8
2017-11-23T00:27:58.136Z,3.8
2017-11-23T00:28:18.413Z,3.9
2017-11-23T00:28:38.644Z,3.8
2017-11-23T00:28:58.875Z,3.8
2017-11-23T00:29:19.102Z,3.8
2017-11-23T00:29:39.352Z,3.7
2017-11-23T00:29:59.550Z,3.8
2017-11-23T00:30:19.761Z,3.8
2017-11-23T00:30:39.972Z,3.9
2017-11-23T00:31:00.182Z,3.8
2017-11-23T00:31:20.392Z,3.7
2017-11-23T00:31:40.600Z,3.7
2017-11-23T00:32:00.808Z,3.7
2017-11-23T00:32:21.047Z,3.7
2017-11-23T00:32:41.260Z,3.8
2017-11-23T00:33:01.476Z,3.8
2017-11-23T00:33:21.692Z,3.9
2017-11-23T00:33:41.910Z,3.8
2017-11-23T00:34:02.117Z,3.7
2017-11-23T00:34:22.322Z,3.8
2017-11-23T00:34:42.531Z,3.8
2017-11-23T00:35:02.745Z,3.8
2017-11-23T00:35:22.963Z,3.7
2017-11-23T00:35:43.179Z,3.8
2017-11-23T00:36:03.390Z,3.7
2017-11-23T00:36:23.612Z,3.8
2017-11-23T00:36:43.826Z,3.7
2017-11-23T00:37:04.031Z,3.7
2017-11-23T00:37:24.268Z,3.8
2017-11-23T00:37:44.489Z,3.7
2017-11-23T00:38:04.705Z,3.7
2017-11-23T00:38:24.916Z,3.7
2017-11-23T00:38:45.123Z,3.8
2017-11-23T00:39:05.332Z,3.7
2017-11-23T00:39:25.553Z,3.7
2017-11-23T00:39:45.760Z,3.7
2017-11-23T00:40:05.961Z,3.7
2017-11-23T00:40:26.179Z,3.7
2017-11-23T00:40:46.412Z,3.6
2017-11-23T00:41:06.613Z,3.6
2017-11-23T00:41:26.826Z,3.7
2017-11-23T00:41:47.052Z,3.6
2017-11-23T00:42:07.262Z,3.6
2017-11-23T00:42:27.467Z,3.7
2017-11-23T00:42:47.689Z,3.5
2017-11-23T00:43:07.901Z,3.7
2017-11-23T00:43:28.110Z,3.6
2017-11-23T00:43:48.330Z,3.6
2017-11-23T00:44:08.553Z,3.6
2017-11-23T00:44:28.761Z,3.7
2017-11-23T00:44:48.984Z,3.6
2017-11-23T00:45:09.211Z,3.6
2017-11-23T00:45:29.410Z,3.6
2017-11-23T00:45:49.616Z,3.5
2017-11-23T00:46:09.832Z,3.6
2017-11-23T00:46:30.041Z,3.6
2017-11-23T00:46:50.265Z,3.7
2017-11-23T00:47:10.485Z,3.6
2017-11-23T00:47:30.695Z,3.5
2017-11-23T00:47:50.919Z,3.6
2017-11-23T00:48:11.129Z,3.6
2017-11-23T00:48:31.345Z,3.6
2017-11-23T00:48:51.541Z,3.6
2017-11-23T00:49:11.764Z,3.6
2017-11-23T00:49:31.971Z,3.6
2017-11-23T00:49:52.192Z,3.6
2017-11-23T00:50:12.400Z,3.6
2017-11-23T00:50:32.610Z,3.7
2017-11-23T00:50:52.828Z,3.6
2017-11-23T00:51:13.046Z,3.6
2017-11-23T00:51:33.265Z,3.6
2017-11-23T00:51:53.476Z,3.5
2017-11-23T00:52:13.695Z,3.6
2017-11-23T00:52:33.916Z,3.6
2017-11-23T00:52:54.131Z,3.6
2017-11-23T00:53:14.343Z,3.6
2017-11-23T00:53:34.549Z,3.5
2017-11-23T00:53:54.758Z,3.6
2017-11-23T00:54:14.971Z,3.6
2017-11-23T00:54:35.221Z,3.6
2017-11-23T00:54:55.484Z,3.6
2017-11-23T00:55:15.702Z,3.6
2017-11-23T00:55:35.909Z,3.6
2017-11-23T00:55:56.119Z,3.5
2017-11-23T00:56:16.317Z,3.6
2017-11-23T00:56:36.536Z,3.6
2017-11-23T00:56:56.764Z,3.6
2017-11-23T00:57:16.972Z,3.5
2017-11-23T00:57:37.190Z,3.5
2017-11-23T00:57:57.401Z,3.5
2017-11-23T00:58:17.662Z,3.5
2017-11-23T00:58:37.839Z,3.5
2017-11-23T00:58:58.067Z,3.5
2017-11-23T00:59:18.283Z,3.5
2017-11-23T00:59:38.499Z,3.5
2017-11-23T00:59:58.716Z,3.5
2017-11-23T01:00:18.931Z,3.6
2017-11-23T01:00:39.154Z,3.5
2017-11-23T01:00:59.363Z,3.5
2017-11-23T01:01:19.568Z,3.5
2017-11-23T01:01:39.768Z,3.5
2017-11-23T01:01:59.979Z,3.5
2017-11-23T01:02:20.187Z,3.5
2017-11-23T01:02:40.416Z,3.5
2017-11-23T01:03:00.642Z,3.4
2017-11-23T01:03:20.848Z,3.5
2017-11-23T01:03:41.070Z,3.5
2017-11-23T01:04:01.282Z,3.5
2017-11-23T01:04:21.512Z,3.5
2017-11-23T01:04:41.731Z,3.6
2017-11-23T01:05:01.957Z,3.6
2017-11-23T01:05:22.173Z,3.5
2017-11-23T01:05:42.382Z,3.6
2017-11-23T01:06:02.603Z,3.5
2017-11-23T01:06:22.827Z,3.6
2017-11-23T01:06:43.031Z,3.6
2017-11-23T01:07:03.256Z,3.6
2017-11-23T01:07:23.474Z,3.6
2017-11-23T01:07:43.686Z,3.6
2017-11-23T01:08:03.908Z,3.6
2017-11-23T01:08:24.134Z,3.6
2017-11-23T01:08:44.348Z,3.6
2017-11-23T01:09:04.561Z,3.5
2017-11-23T01:09:24.779Z,3.6
2017-11-23T01:09:44.983Z,3.6
2017-11-23T01:10:05.207Z,3.6
2017-11-23T01:10:25.428Z,3.7
2017-11-23T01:10:45.645Z,3.6
2017-11-23T01:11:05.854Z,3.6
2017-11-23T01:11:26.072Z,3.5
2017-11-23T01:11:46.283Z,3.6
2017-11-23T01:12:06.492Z,3.6
2017-11-23T01:12:26.707Z,3.6
2017-11-23T01:12:46.917Z,3.6
2017-11-23T01:13:07.117Z,3.6
2017-11-23T01:13:27.341Z,3.6
2017-11-23T01:13:47.560Z,3.7
2017-11-23T01:14:07.787Z,3.6
2017-11-23T01:14:28.008Z,3.6
2017-11-23T01:14:48.216Z,3.7
2017-11-23T01:15:08.440Z,3.7
2017-11-23T01:15:28.665Z,3.7
2017-11-23T01:15:48.888Z,3.6
2017-11-23T01:16:09.098Z,3.6
2017-11-23T01:16:29.298Z,3.6
2017-11-23T01:16:49.512Z,3.7
2017-11-23T01:17:09.722Z,3.8
2017-11-23T01:17:29.940Z,3.6
2017-11-23T01:17:50.164Z,3.5
2017-11-23T01:18:10.384Z,3.6
2017-11-23T01:18:30.594Z,3.6
2017-11-23T01:18:50.809Z,3.6
2017-11-23T01:19:11.025Z,3.7
2017-11-23T01:19:31.234Z,3.6
2017-11-23T01:19:51.449Z,3.7
2017-11-23T01:20:11.675Z,3.7
2017-11-23T01:20:31.892Z,3.8
2017-11-23T01:20:52.106Z,3.6
2017-11-23T01:21:12.326Z,3.7
2017-11-23T01:21:32.536Z,3.6
2017-11-23T01:21:52.754Z,3.7
2017-11-23T01:22:12.956Z,3.7
2017-11-23T01:22:33.175Z,3.7
2017-11-23T01:22:53.390Z,3.6
2017-11-23T01:23:13.619Z,3.6
2017-11-23T01:23:33.834Z,3.7
2017-11-23T01:23:54.046Z,3.7
2017-11-23T01:24:14.244Z,3.6
2017-11-23T01:24:34.455Z,3.7
2017-11-23T01:24:54.687Z,3.6
2017-11-23T01:25:14.897Z,3.6
2017-11-23T01:25:35.124Z,3.8
2017-11-23T01:25:55.335Z,3.6
2017-11-23T01:26:15.535Z,3.7
2017-11-23T01:26:35.747Z,3.7
2017-11-23T01:26:55.966Z,3.7
2017-11-23T01:27:16.165Z,3.6
2017-11-23T01:27:36.377Z,3.6
2017-11-23T01:27:56.569Z,3.7
2017-11-23T01:28:16.783Z,3.7
2017-11-23T01:28:37.003Z,3.7
2017-11-23T01:28:58.886Z,3.6
2017-11-23T01:29:19.192Z,3.8
2017-11-23T01:29:39.401Z,3.7
2017-11-23T01:29:59.615Z,3.7
2017-11-23T01:30:20.804Z,3.7
2017-11-23T01:30:41.045Z,3.6
2017-11-23T01:31:01.250Z,3.6
2017-11-23T01:31:21.482Z,3.7
2017-11-23T01:31:41.718Z,3.7
2017-11-23T01:32:01.924Z,3.8
2017-11-23T01:32:22.136Z,3.7
2017-11-23T01:32:42.365Z,3.7
2017-11-23T01:33:02.568Z,3.6
2017-11-23T01:33:22.769Z,3.7
2017-11-23T01:33:42.992Z,3.7
2017-11-23T01:34:03.226Z,3.8
2017-11-23T01:34:23.444Z,3.6
2017-11-23T01:34:43.660Z,3.7
2017-11-23T01:35:03.878Z,3.7
2017-11-23T01:35:24.115Z,3.6
2017-11-23T01:35:44.314Z,3.7
2017-11-23T01:36:04.529Z,3.7
2017-11-23T01:36:24.732Z,3.6
2017-11-23T01:36:44.946Z,3.7
2017-11-23T01:37:05.157Z,3.6
2017-11-23T01:37:25.390Z,3.7
2017-11-23T01:37:45.597Z,3.7
2017-11-23T01:38:05.824Z,3.7
2017-11-23T01:38:26.036Z,3.6
2017-11-23T01:38:46.251Z,3.7
2017-11-23T01:39:06.474Z,3.7
2017-11-23T01:39:26.679Z,3.5
2017-11-23T01:39:46.896Z,3.7
2017-11-23T01:40:07.130Z,3.6
2017-11-23T01:40:27.345Z,3.6
2017-11-23T01:40:47.557Z,3.6
2017-11-23T01:41:07.766Z,3.5
2017-11-23T01:41:27.980Z,3.6
2017-11-23T01:41:48.203Z,3.6
2017-11-23T01:42:08.418Z,3.6
2017-11-23T01:42:28.638Z,3.6
2017-11-23T01:42:48.865Z,3.5
2017-11-23T01:43:09.090Z,3.5
2017-11-23T01:43:29.314Z,3.5
2017-11-23T01:43:49.532Z,3.4
2017-11-23T01:44:09.761Z,3.5
2017-11-23T01:44:29.970Z,3.4
2017-11-23T01:44:50.207Z,3.5
2017-11-23T01:45:10.420Z,3.4
2017-11-23T01:45:30.642Z,3.5
2017-11-23T01:45:50.847Z,3.4
2017-11-23T01:46:11.072Z,3.5
2017-11-23T01:46:31.280Z,3.4
2017-11-23T01:46:51.510Z,3.4
2017-11-23T01:47:11.749Z,3.4
2017-11-23T01:47:31.964Z,3.5
2017-11-23T01:47:52.175Z,3.4
2017-11-23T01:48:12.386Z,3.5
2017-11-23T01:48:32.595Z,3.4
2017-11-23T01:48:52.804Z,3.4
2017-11-23T01:49:13.010Z,3.4
2017-11-23T01:49:33.216Z,3.4
2017-11-23T01:49:53.428Z,3.5
2017-11-23T01:50:13.636Z,3.5
2017-11-23T01:50:33.831Z,3.4
2017-11-23T01:50:54.040Z,3.5
2017-11-23T01:51:14.261Z,3.4
2017-11-23T01:51:34.487Z,3.5
2017-11-23T01:51:54.707Z,3.5
2017-11-23T01:52:14.926Z,3.4
2017-11-23T01:52:35.149Z,3.4
2017-11-23T01:52:55.356Z,3.5
2017-11-23T01:53:15.562Z,3.5
2017-11-23T01:53:35.786Z,3.5
2017-11-23T01:53:55.996Z,3.4
2017-11-23T01:54:16.226Z,3.4
2017-11-23T01:54:36.451Z,3.5
2017-11-23T01:54:56.695Z,3.5
2017-11-23T01:55:16.874Z,3.4
2017-11-23T01:55:37.089Z,3.5
2017-11-23T01:55:57.295Z,3.5
2017-11-23T01:56:17.512Z,3.5
2017-11-23T01:56:37.721Z,3.4
2017-11-23T01:56:57.937Z,3.5
2017-11-23T01:57:18.167Z,3.4
2017-11-23T01:57:38.383Z,3.4
2017-11-23T01:57:58.612Z,3.4
2017-11-23T01:58:18.825Z,3.5
2017-11-23T01:58:39.037Z,3.4
2017-11-23T01:58:59.260Z,3.5
2017-11-23T01:59:19.476Z,3.4
2017-11-23T01:59:39.685Z,3.4
2017-11-23T01:59:59.897Z,3.4
2017-11-23T02:00:20.133Z,3.4
2017-11-23T02:00:40.348Z,3.4
2017-11-23T02:01:00.554Z,3.5
2017-11-23T02:01:20.767Z,3.4
2017-11-23T02:01:40.984Z,3.4
2017-11-23T02:02:01.203Z,3.5
2017-11-23T02:02:21.412Z,3.4
2017-11-23T02:02:41.614Z,3.5
2017-11-23T02:03:01.841Z,3.5
2017-11-23T02:03:22.056Z,3.5
2017-11-23T02:03:42.261Z,3.5
2017-11-23T02:04:02.472Z,3.4
2017-11-23T02:04:22.691Z,3.4
2017-11-23T02:04:42.899Z,3.4
2017-11-23T02:05:03.127Z,3.4
2017-11-23T02:05:23.335Z,3.3
2017-11-23T02:05:43.563Z,3.4
2017-11-23T02:06:03.767Z,3.4
2017-11-23T02:06:23.988Z,3.4
2017-11-23T02:06:44.189Z,3.3
2017-11-23T02:07:04.414Z,3.4
2017-11-23T02:07:24.637Z,3.3
2017-11-23T02:07:44.855Z,3.3
2017-11-23T02:08:05.059Z,3.3
2017-11-23T02:08:25.261Z,3.4
2017-11-23T02:08:45.492Z,3.4
2017-11-23T02:09:05.703Z,3.4
2017-11-23T02:09:25.919Z,3.3
2017-11-23T02:09:46.138Z,3.3
2017-11-23T02:10:06.354Z,3.3
2017-11-23T02:10:26.576Z,3.4
2017-11-23T02:10:46.798Z,3.4
2017-11-23T02:11:07.009Z,3.3
2017-11-23T02:11:27.234Z,3.3
2017-11-23T02:11:47.445Z,3.4
2017-11-23T02:12:07.669Z,3.4
2017-11-23T02:12:27.890Z,3.3
2017-11-23T02:12:48.111Z,3.4
2017-11-23T02:13:08.341Z,3.3
2017-11-23T02:13:28.551Z,3.4
2017-11-23T02:13:48.751Z,3.4
2017-11-23T02:14:08.974Z,3.2
2017-11-23T02:14:29.200Z,3.3
2017-11-23T02:14:49.414Z,3.3
2017-11-23T02:15:09.634Z,3.3
2017-11-23T02:15:29.861Z,3.2
2017-11-23T02:15:50.080Z,3.4
2017-11-23T02:16:10.289Z,3.3
2017-11-23T02:16:30.516Z,3.3
2017-11-23T02:16:50.736Z,3.3
2017-11-23T02:17:10.980Z,3.3
2017-11-23T02:17:31.184Z,3.4
2017-11-23T02:17:51.412Z,3.2
2017-11-23T02:18:11.622Z,3.3
2017-11-23T02:18:31.850Z,3.3
2017-11-23T02:18:52.056Z,3.3
2017-11-23T02:19:12.269Z,3.3
2017-11-23T02:19:32.488Z,3.4
2017-11-23T02:19:52.710Z,3.3
2017-11-23T02:20:12.916Z,3.4
2017-11-23T02:20:33.156Z,3.3
2017-11-23T02:20:53.353Z,3.3
2017-11-23T02:21:13.586Z,3.3
2017-11-23T02:21:33.800Z,3.3
2017-11-23T02:21:54.019Z,3.4
2017-11-23T02:22:14.222Z,3.4
2017-11-23T02:22:34.425Z,3.4
2017-11-23T02:22:54.627Z,3.4
2017-11-23T02:23:14.834Z,3.4
2017-11-23T02:23:35.190Z,3.3
2017-11-23T02:23:55.404Z,3.3
2017-11-23T02:24:15.627Z,3.4
2017-11-23T02:24:35.844Z,3.3
2017-11-23T02:24:56.051Z,3.3
2017-11-23T02:25:16.255Z,3.4
2017-11-23T02:25:36.472Z,3.3
2017-11-23T02:25:56.693Z,3.3
2017-11-23T02:26:16.895Z,3.4
2017-11-23T02:26:37.109Z,3.3
2017-11-23T02:26:57.318Z,3.4
2017-11-23T02:27:17.533Z,3.3
2017-11-23T02:27:37.744Z,3.3
2017-11-23T02:27:57.960Z,3.3
2017-11-23T02:28:18.177Z,3.3
2017-11-23T02:28:38.396Z,3.2
2017-11-23T02:28:58.604Z,3.2
2017-11-23T02:29:18.814Z,3.3
2017-11-23T02:29:39.029Z,3.3
2017-11-23T02:29:59.244Z,3.2
2017-11-23T02:30:19.468Z,3.2
2017-11-23T02:30:39.668Z,3.2
2017-11-23T02:30:59.902Z,3.3
2017-11-23T02:31:20.123Z,3.2
2017-11-23T02:31:40.344Z,3.2
2017-11-23T02:32:00.545Z,3.2
2017-11-23T02:32:20.736Z,3.1
2017-11-23T02:32:40.957Z,3.1
2017-11-23T02:33:01.186Z,3.2
2017-11-23T02:33:21.413Z,3.2
2017-11-23T02:33:41.617Z,3.2
2017-11-23T02:34:01.843Z,3.2
2017-11-23T02:34:22.054Z,3.1
2017-11-23T02:34:42.279Z,3.1
2017-11-23T02:35:02.493Z,3.1
2017-11-23T02:35:22.705Z,3.1
2017-11-23T02:35:42.902Z,3.1
2017-11-23T02:36:03.141Z,3.1
2017-11-23T02:36:23.366Z,3
2017-11-23T02:36:43.586Z,3
2017-11-23T02:37:03.796Z,3.1
2017-11-23T02:37:24.017Z,3
2017-11-23T02:37:44.234Z,3
2017-11-23T02:38:04.437Z,3
2017-11-23T02:38:24.662Z,3
2017-11-23T02:38:44.867Z,3
2017-11-23T02:39:05.076Z,3.1
2017-11-23T02:39:25.313Z,3.1
2017-11-23T02:39:45.515Z,3
2017-11-23T02:40:05.726Z,3
2017-11-23T02:40:25.946Z,3
2017-11-23T02:40:46.159Z,3
2017-11-23T02:41:06.392Z,3.1
2017-11-23T02:41:26.595Z,3
2017-11-23T02:41:46.810Z,3
2017-11-23T02:42:07.043Z,3.1
2017-11-23T02:42:27.260Z,3.1
2017-11-23T02:42:47.468Z,3
2017-11-23T02:43:07.684Z,3
2017-11-23T02:43:27.903Z,3
2017-11-23T02:43:48.106Z,3.1
2017-11-23T02:44:08.327Z,3.1
2017-11-23T02:44:28.557Z,3
2017-11-23T02:44:48.759Z,3
2017-11-23T02:45:08.979Z,3
2017-11-23T02:45:29.193Z,3
2017-11-23T02:45:49.406Z,3
2017-11-23T02:46:09.617Z,3
2017-11-23T02:46:29.823Z,3
2017-11-23T02:46:50.030Z,3
2017-11-23T02:47:10.245Z,3
2017-11-23T02:47:30.455Z,3
2017-11-23T02:47:50.667Z,3
2017-11-23T02:48:10.901Z,3
2017-11-23T02:48:31.115Z,3
2017-11-23T02:48:51.325Z,3
2017-11-23T02:49:11.553Z,3.1
2017-11-23T02:49:31.778Z,3.1
2017-11-23T02:49:51.994Z,3.1
2017-11-23T02:50:12.237Z,3
2017-11-23T02:50:32.455Z,3
2017-11-23T02:50:52.663Z,3
2017-11-23T02:51:12.886Z,3
2017-11-23T02:51:33.097Z,3
2017-11-23T02:51:53.300Z,3
2017-11-23T02:52:13.527Z,3
2017-11-23T02:52:33.745Z,3.1
2017-11-23T02:52:53.940Z,3
2017-11-23T02:53:14.167Z,2.9
2017-11-23T02:53:34.373Z,3
2017-11-23T02:53:54.599Z,3.1
2017-11-23T02:54:14.827Z,3.1
2017-11-23T02:54:35.043Z,3
2017-11-23T02:54:55.267Z,3
2017-11-23T02:55:15.473Z,3
2017-11-23T02:55:35.694Z,3
2017-11-23T02:55:55.921Z,3
2017-11-23T02:56:16.134Z,3
2017-11-23T02:56:36.347Z,3
2017-11-23T02:56:56.558Z,3
2017-11-23T02:57:16.766Z,3
2017-11-23T02:57:36.983Z,3
2017-11-23T02:57:57.198Z,3
2017-11-23T02:58:17.402Z,3
2017-11-23T02:58:37.626Z,3
2017-11-23T02:58:57.832Z,3
2017-11-23T02:59:18.046Z,3
2017-11-23T02:59:38.259Z,3.1
2017-11-23T02:59:58.467Z,3
2017-11-23T03:00:18.672Z,3.1
2017-11-23T03:00:38.885Z,3
2017-11-23T03:00:59.111Z,3
2017-11-23T03:01:19.323Z,3
2017-11-23T03:01:39.534Z,3
2017-11-23T03:01:59.752Z,3
2017-11-23T03:02:19.968Z,3
2017-11-23T03:02:40.175Z,3
2017-11-23T03:03:00.385Z,3
2017-11-23T03:03:20.604Z,3
2017-11-23T03:03:40.798Z,3
2017-11-23T03:04:01.025Z,3
2017-11-23T03:04:21.256Z,3
2017-11-23T03:04:41.455Z,3.1
2017-11-23T03:05:01.670Z,3.1
2017-11-23T03:05:21.860Z,3
2017-11-23T03:05:42.084Z,3.1
2017-11-23T03:06:02.295Z,3.1
2017-11-23T03:06:22.564Z,3.2
2017-11-23T03:06:42.767Z,3
2017-11-23T03:07:02.970Z,3.1
2017-11-23T03:07:23.176Z,3.1
2017-11-23T03:07:43.391Z,3.1
2017-11-23T03:08:03.605Z,3.2
2017-11-23T03:08:23.815Z,3.1
2017-11-23T03:08:44.019Z,3.1
2017-11-23T03:09:04.255Z,3.1
2017-11-23T03:09:24.462Z,3.1
2017-11-23T03:09:44.673Z,3.2
2017-11-23T03:10:04.896Z,3.1
2017-11-23T03:10:25.120Z,3.1
2017-11-23T03:10:45.347Z,3.1
2017-11-23T03:11:05.569Z,3.1
2017-11-23T03:11:25.791Z,3.1
2017-11-23T03:11:46.011Z,3.2
2017-11-23T03:12:06.249Z,3.1
2017-11-23T03:12:26.476Z,3.1
2017-11-23T03:12:46.712Z,3.1
2017-11-23T03:13:06.926Z,3.1
2017-11-23T03:13:27.121Z,3.1
2017-11-23T03:13:47.343Z,3.1
2017-11-23T03:14:07.557Z,3.1
2017-11-23T03:14:27.773Z,3.2
2017-11-23T03:14:47.989Z,3.1
2017-11-23T03:15:08.209Z,3.1
2017-11-23T03:15:28.431Z,3.1
2017-11-23T03:15:48.642Z,3.2
2017-11-23T03:16:08.849Z,3.1
2017-11-23T03:16:29.059Z,3.2
2017-11-23T03:16:49.268Z,3.1
2017-11-23T03:17:09.483Z,3.1
2017-11-23T03:17:29.698Z,3.2
2017-11-23T03:17:49.921Z,3.1
2017-11-23T03:18:10.146Z,3.1
2017-11-23T03:18:30.347Z,3.2
2017-11-23T03:18:50.581Z,3.2
2017-11-23T03:19:10.782Z,3.2
2017-11-23T03:19:30.998Z,3.2
2017-11-23T03:19:51.202Z,3.1
2017-11-23T03:20:11.417Z,3.2
2017-11-23T03:20:31.627Z,3.2
2017-11-23T03:20:51.845Z,3.2
2017-11-23T03:21:12.047Z,3.2
2017-11-23T03:21:32.279Z,3.2
2017-11-23T03:21:52.488Z,3.2
2017-11-23T03:22:12.727Z,3.2
2017-11-23T03:22:32.937Z,3.2
2017-11-23T03:22:53.141Z,3.2
2017-11-23T03:23:13.356Z,3.2
2017-11-23T03:23:33.558Z,3.2
2017-11-23T03:23:53.788Z,3.2
2017-11-23T03:24:13.996Z,3.2
2017-11-23T03:24:34.226Z,3.1
2017-11-23T03:24:54.429Z,3.2
2017-11-23T03:25:14.647Z,3.3
2017-11-23T03:25:34.861Z,3.2
2017-11-23T03:25:55.071Z,3.2
2017-11-23T03:26:15.300Z,3.3
2017-11-23T03:26:35.516Z,3.2
2017-11-23T03:26:55.738Z,3.2
2017-11-23T03:27:15.939Z,3.2
2017-11-23T03:27:36.161Z,3.2
2017-11-23T03:27:56.358Z,3.3
2017-11-23T03:28:16.575Z,3.3
2017-11-23T03:28:36.790Z,3.3
2017-11-23T03:28:57.005Z,3.2
2017-11-23T03:29:17.229Z,3.4
2017-11-23T03:29:37.437Z,3.3
2017-11-23T03:29:57.650Z,3.4
2017-11-23T03:30:17.872Z,3.3
2017-11-23T03:30:38.076Z,3.4
2017-11-23T03:30:58.290Z,3.3
2017-11-23T03:31:18.510Z,3.3
2017-11-23T03:31:38.711Z,3.3
2017-11-23T03:31:58.921Z,3.4
2017-11-23T03:32:19.139Z,3.4
2017-11-23T03:32:39.351Z,3.4
2017-11-23T03:32:59.571Z,3.4
2017-11-23T03:33:19.794Z,3.4
2017-11-23T03:33:40.012Z,3.4
2017-11-23T03:34:00.241Z,3.4
2017-11-23T03:34:20.445Z,3.3
2017-11-23T03:34:40.660Z,3.4
2017-11-23T03:35:00.892Z,3.4
2017-11-23T03:35:21.098Z,3.4
2017-11-23T03:35:41.314Z,3.5
2017-11-23T03:36:01.525Z,3.4
2017-11-23T03:36:21.755Z,3.4
2017-11-23T03:36:41.981Z,3.4
2017-11-23T03:37:02.185Z,3.4
2017-11-23T03:37:22.410Z,3.5
2017-11-23T03:37:42.631Z,3.5
2017-11-23T03:38:02.838Z,3.5
2017-11-23T03:38:23.056Z,3.5
2017-11-23T03:38:43.271Z,3.6
2017-11-23T03:39:03.476Z,3.6
2017-11-23T03:39:23.688Z,3.6
2017-11-23T03:39:43.894Z,3.6
2017-11-23T03:40:04.103Z,3.5
2017-11-23T03:40:24.310Z,3.7
2017-11-23T03:40:44.508Z,3.6
2017-11-23T03:41:04.729Z,3.7
2017-11-23T03:41:24.941Z,3.6
2017-11-23T03:41:45.162Z,3.6
2017-11-23T03:42:05.365Z,3.7
2017-11-23T03:42:25.579Z,3.5
2017-11-23T03:42:45.804Z,3.7
2017-11-23T03:43:06.029Z,3.6
2017-11-23T03:43:26.232Z,3.7
2017-11-23T03:43:46.452Z,3.6
2017-11-23T03:44:06.683Z,3.7
2017-11-23T03:44:26.913Z,3.6
2017-11-23T03:44:47.130Z,3.7
2017-11-23T03:45:07.351Z,3.6
2017-11-23T03:45:27.560Z,3.6
2017-11-23T03:45:47.776Z,3.7
2017-11-23T03:46:07.983Z,3.6
2017-11-23T03:46:28.211Z,3.5
2017-11-23T03:46:48.437Z,3.8
2017-11-23T03:47:08.651Z,3.7
2017-11-23T03:47:28.887Z,3.7
2017-11-23T03:47:49.102Z,3.6
2017-11-23T03:48:09.314Z,3.6
2017-11-23T03:48:29.525Z,3.7
2017-11-23T03:48:49.745Z,3.7
2017-11-23T03:49:09.971Z,3.6
2017-11-23T03:49:30.205Z,3.7
2017-11-23T03:49:50.415Z,3.7
2017-11-23T03:50:10.645Z,3.8
2017-11-23T03:50:30.853Z,3.6
2017-11-23T03:50:51.077Z,3.6
2017-11-23T03:51:11.299Z,3.7
2017-11-23T03:51:32.174Z,3.7
2017-11-23T03:51:52.986Z,3.6
2017-11-23T03:52:13.220Z,3.7
2017-11-23T03:52:34.106Z,3.6
2017-11-23T03:52:54.705Z,3.6
2017-11-23T03:53:14.929Z,3.7
2017-11-23T03:53:35.141Z,3.6
2017-11-23T03:53:55.362Z,3.6
2017-11-23T03:54:15.613Z,3.6
2017-11-23T03:54:35.839Z,3.7
2017-11-23T03:54:56.054Z,3.7
2017-11-23T03:55:16.274Z,3.7
2017-11-23T03:55:36.476Z,3.7
2017-11-23T03:55:56.749Z,3.7
2017-11-23T03:56:16.919Z,3.7
2017-11-23T03:56:37.305Z,3.6
2017-11-23T03:56:57.553Z,3.8
2017-11-23T03:57:17.777Z,3.6
2017-11-23T03:57:37.996Z,3.7
2017-11-23T03:57:58.209Z,3.7
2017-11-23T03:58:18.428Z,3.7
2017-11-23T03:58:38.663Z,3.7
2017-11-23T03:58:58.879Z,3.6
2017-11-23T03:59:19.078Z,3.6
2017-11-23T03:59:39.304Z,3.6
2017-11-23T03:59:59.521Z,3.7
2017-11-23T04:00:19.729Z,3.7
2017-11-23T04:00:39.958Z,3.6
2017-11-23T04:01:00.174Z,3.6
2017-11-23T04:01:20.380Z,3.8
2017-11-23T04:01:40.601Z,3.6
2017-11-23T04:02:00.804Z,3.6
2017-11-23T04:02:21.016Z,3.6
2017-11-23T04:02:42.284Z,3.6
2017-11-23T04:03:02.514Z,3.6
2017-11-23T04:03:22.743Z,3.7
2017-11-23T04:03:42.941Z,3.7
2017-11-23T04:04:03.153Z,3.6
2017-11-23T04:04:23.382Z,3.7
2017-11-23T04:04:43.603Z,3.6
2017-11-23T04:05:03.833Z,3.6
2017-11-23T04:05:24.412Z,3.7
2017-11-23T04:05:44.934Z,3.7
2017-11-23T04:06:05.186Z,3.7
2017-11-23T04:06:25.401Z,3.6
2017-11-23T04:06:45.617Z,3.7
2017-11-23T04:07:05.846Z,3.7
2017-11-23T04:07:26.237Z,3.6
2017-11-23T04:07:46.443Z,3.7
2017-11-23T04:08:06.668Z,3.8
2017-11-23T04:08:26.880Z,3.6
2017-11-23T04:08:47.096Z,3.6
2017-11-23T04:09:07.307Z,3.7
2017-11-23T04:09:27.517Z,3.6
2017-11-23T04:09:47.717Z,3.7
2017-11-23T04:10:07.958Z,3.8
2017-11-23T04:10:28.176Z,3.7
2017-11-23T04:10:48.382Z,3.7
2017-11-23T04:11:08.597Z,3.7
2017-11-23T04:11:28.825Z,3.6
2017-11-23T04:11:49.176Z,3.6
2017-11-23T04:12:09.391Z,3.7
2017-11-23T04:12:29.612Z,3.6
2017-11-23T04:12:49.838Z,3.6
2017-11-23T04:13:10.042Z,3.7
2017-11-23T04:13:30.271Z,3.7
2017-11-23T04:13:50.482Z,3.7
2017-11-23T04:14:10.693Z,3.7
2017-11-23T04:14:30.898Z,3.7
2017-11-23T04:14:51.135Z,3.7
2017-11-23T04:15:11.344Z,3.7
2017-11-23T04:15:32.011Z,3.7
2017-11-23T04:15:52.275Z,3.7
2017-11-23T04:16:12.502Z,3.7
2017-11-23T04:16:32.712Z,3.7
2017-11-23T04:16:52.919Z,3.7
2017-11-23T04:17:13.145Z,3.8
2017-11-23T04:17:33.393Z,3.7
2017-11-23T04:17:53.602Z,3.8
2017-11-23T04:18:13.823Z,3.7
2017-11-23T04:18:34.046Z,3.8
2017-11-23T04:18:54.325Z,3.8
2017-11-23T04:19:14.535Z,3.7
2017-11-23T04:19:34.746Z,3.8
2017-11-23T04:19:54.962Z,3.9
2017-11-23T04:20:15.170Z,3.8
2017-11-23T04:20:35.403Z,3.9
2017-11-23T04:20:55.678Z,3.9
2017-11-23T04:21:16.021Z,3.9
2017-11-23T04:21:36.235Z,3.8
2017-11-23T04:21:56.483Z,3.8
2017-11-23T04:22:16.681Z,3.9
2017-11-23T04:22:36.908Z,3.9
2017-11-23T04:22:57.134Z,3.8
2017-11-23T04:23:17.358Z,3.8
2017-11-23T04:23:37.947Z,3.8
2017-11-23T04:23:58.244Z,3.9
2017-11-23T04:24:18.601Z,3.9
2017-11-23T04:24:39.046Z,3.9
2017-11-23T04:24:59.357Z,3.9
2017-11-23T04:25:19.675Z,3.9
2017-11-23T04:25:40.102Z,3.9
2017-11-23T04:26:01.477Z,3.8
2017-11-23T04:26:22.599Z,3.9
2017-11-23T04:26:43.637Z,3.9
2017-11-23T04:27:04.889Z,3.9
2017-11-23T04:27:25.428Z,3.9
2017-11-23T04:27:46.097Z,3.9
2017-11-23T04:28:06.675Z,3.9
2017-11-23T04:28:27.461Z,3.9
2017-11-23T04:28:48.775Z,3.9
2017-11-23T04:29:09.292Z,3.8
2017-11-23T04:29:29.706Z,3.8
2017-11-23T04:29:50.296Z,3.9
2017-11-23T04:30:11.070Z,3.9
2017-11-23T04:30:31.598Z,4
2017-11-23T04:30:51.852Z,3.9
2017-11-23T04:31:12.169Z,3.9
2017-11-23T04:31:33.331Z,3.9
2017-11-23T04:31:53.805Z,3.9
2017-11-23T04:32:14.131Z,3.8
2017-11-23T04:32:34.423Z,3.9
2017-11-23T04:32:55.663Z,3.9
2017-11-23T04:33:16.034Z,3.8
2017-11-23T04:33:36.348Z,3.9
2017-11-23T04:33:56.677Z,3.9
2017-11-23T04:34:17.083Z,3.9
2017-11-23T04:34:37.520Z,3.8
2017-11-23T04:34:57.730Z,3.9
2017-11-23T04:35:18.170Z,3.9
2017-11-23T04:35:38.588Z,3.9
2017-11-23T04:35:58.809Z,3.9
2017-11-23T04:36:19.729Z,3.9
2017-11-23T04:36:41.390Z,3.8
2017-11-23T04:37:03.887Z,3.9
2017-11-23T04:37:24.455Z,3.9
2017-11-23T04:37:45.030Z,3.9
2017-11-23T04:38:05.332Z,3.9
2017-11-23T04:38:26.172Z,3.8
2017-11-23T04:38:46.565Z,3.8
2017-11-23T04:39:07.038Z,3.9
2017-11-23T04:39:27.481Z,3.9
2017-11-23T04:39:49.254Z,3.8
2017-11-23T04:40:09.675Z,4
2017-11-23T04:40:30.009Z,3.9
2017-11-23T04:40:50.351Z,3.9
2017-11-23T04:41:10.692Z,3.9